Time;durP1;ratioP1;P1;durP2;ratioP2;P2;SDS_P1;SDS_P2;PMS_P1;PMS_P2;Temp;Humidity;BMP_temperature;BMP_pressure;BME280_temperature;BME280_humidity;BME280_pressure;Samples;Min_cycle;Max_cycle;Signal;HPM_P1;HPM_P2
2023/05/23 00:01:02;;;;;;;4.80;1.98;;;12.70;97.60;;;;;;5032597;28;20083;-55
2023/05/23 00:03:30;;;;;;;3.40;1.27;;;12.70;98.80;;;;;;5032436;28;20784;-52
2023/05/23 00:05:55;;;;;;;4.80;2.70;;;12.70;97.30;;;;;;5031441;28;20025;-44
2023/05/23 00:08:21;;;;;;;3.65;1.75;;;12.60;97.20;;;;;;5032061;28;20079;-50
2023/05/23 00:10:47;;;;;;;2.38;1.52;;;12.60;97.30;;;;;;5032421;28;20018;-47
2023/05/23 00:13:13;;;;;;;3.35;1.95;;;12.60;98.30;;;;;;5032019;28;20038;-50
2023/05/23 00:15:42;;;;;;;3.38;1.92;;;12.60;98.00;;;;;;5032263;28;20024;-49
2023/05/23 00:18:12;;;;;;;3.13;1.67;;;12.50;98.00;;;;;;5031856;28;20543;-54
2023/05/23 00:20:44;;;;;;;10.15;2.92;;;12.50;98.20;;;;;;5032081;28;20033;-44
2023/05/23 00:23:17;;;;;;;4.53;1.67;;;12.50;98.00;;;;;;5031758;28;20021;-45
2023/05/23 00:25:47;;;;;;;4.53;2.22;;;12.50;98.60;;;;;;5031809;28;20396;-49
2023/05/23 00:28:13;;;;;;;;;;;12.40;98.80;;;;;;5032352;28;20053;-43
2023/05/23 00:30:38;;;;;;;3.88;1.92;;;12.50;98.90;;;;;;5031497;28;19937;-48
2023/05/23 00:33:05;;;;;;;3.13;1.92;;;12.40;99.90;;;;;;5031890;28;20064;-48
2023/05/23 00:35:30;;;;;;;4.22;2.40;;;12.40;99.90;;;;;;5031930;28;20034;-49
2023/05/23 00:37:56;;;;;;;1.55;1.15;;;12.30;99.90;;;;;;5031500;28;20028;-59
2023/05/23 00:40:22;;;;;;;2.70;1.70;;;12.30;99.90;;;;;;5031933;28;20047;-48
2023/05/23 00:42:48;;;;;;;5.00;2.35;;;12.30;99.90;;;;;;5031704;28;20398;-52
2023/05/23 00:45:15;;;;;;;3.08;1.83;;;12.30;99.90;;;;;;5031676;28;20369;-51
2023/05/23 00:47:41;;;;;;;4.03;2.08;;;12.20;99.90;;;;;;5031389;28;20376;-56
2023/05/23 00:50:10;;;;;;;3.65;2.35;;;12.20;99.90;;;;;;5031688;28;20037;-56
2023/05/23 00:52:37;;;;;;;10.13;2.20;;;12.20;99.90;;;;;;5031754;28;20108;-51
2023/05/23 00:55:04;;;;;;;3.22;2.22;;;12.20;99.90;;;;;;5031245;28;20353;-52
2023/05/23 00:57:29;;;;;;;3.40;2.20;;;12.20;99.90;;;;;;5031613;28;20079;-50
2023/05/23 00:59:55;;;;;;;8.77;1.90;;;12.10;99.90;;;;;;5031491;28;20041;-50
2023/05/23 01:02:21;;;;;;;3.75;2.00;;;12.10;99.90;;;;;;5030776;28;20088;-50
2023/05/23 01:04:53;;;;;;;4.43;2.13;;;12.10;99.90;;;;;;5031078;28;20488;-57
2023/05/23 01:07:19;;;;;;;4.22;2.40;;;12.10;99.90;;;;;;5031434;28;20017;-56
2023/05/23 01:09:46;;;;;;;3.63;1.83;;;12.00;99.90;;;;;;5031164;28;20024;-58
2023/05/23 01:12:36;;;;;;;8.93;2.55;;;12.00;99.90;;;;;;5031048;28;20014;-49
2023/05/23 01:15:12;;;;;;;2.90;1.65;;;12.00;99.90;;;;;;5031297;28;20024;-57
2023/05/23 01:17:46;;;;;;;7.22;2.38;;;11.90;99.90;;;;;;5031211;28;20025;-52
2023/05/23 01:20:28;;;;;;;4.03;2.10;;;11.90;99.90;;;;;;5031105;28;20091;-55
2023/05/23 01:23:00;;;;;;;4.68;2.55;;;11.90;99.90;;;;;;5031138;28;20033;-50
2023/05/23 01:25:46;;;;;;;6.55;1.75;;;11.90;99.90;;;;;;5030901;28;20033;-48
2023/05/23 01:28:17;;;;;;;3.55;2.50;;;11.80;99.90;;;;;;5031062;28;20434;-52
2023/05/23 01:30:46;;;;;;;3.63;1.98;;;11.80;99.90;;;;;;5030262;28;20026;-52
2023/05/23 01:33:15;;;;;;;2.30;1.40;;;11.70;99.90;;;;;;5030958;28;20037;-53
2023/05/23 01:35:42;;;;;;;3.13;1.63;;;11.70;99.90;;;;;;5030821;28;20034;-54
2023/05/23 01:38:08;;;;;;;3.10;1.45;;;11.70;99.90;;;;;;5031068;28;20275;-47
2023/05/23 01:40:35;;;;;;;6.95;3.30;;;11.60;99.90;;;;;;5030734;28;20476;-59
2023/05/23 01:43:01;;;;;;;4.53;2.05;;;11.60;99.90;;;;;;5030723;28;20040;-53
2023/05/23 01:45:28;;;;;;;4.30;1.98;;;11.60;99.90;;;;;;5030464;28;20033;-59
2023/05/23 01:47:55;;;;;;;5.90;2.22;;;11.60;99.90;;;;;;5030567;28;20068;-57
2023/05/23 01:50:22;;;;;;;5.03;2.35;;;11.50;99.90;;;;;;5030731;28;20025;-51
2023/05/23 01:52:48;;;;;;;4.97;2.75;;;11.50;99.90;;;;;;5030567;28;20498;-53
2023/05/23 01:55:21;;;;;;;3.42;1.52;;;11.40;99.90;;;;;;5030688;28;20030;-48
2023/05/23 01:57:51;;;;;;;5.82;1.80;;;11.30;99.90;;;;;;5030577;28;20026;-52
2023/05/23 02:00:17;;;;;;;3.45;2.00;;;11.40;99.90;;;;;;5030248;28;20027;-53
2023/05/23 02:02:43;;;;;;;3.17;1.98;;;11.30;99.90;;;;;;5030166;28;20038;-52
2023/05/23 02:05:09;;;;;;;5.88;3.05;;;11.30;99.90;;;;;;5030254;28;20088;-47
2023/05/23 02:07:35;;;;;;;2.70;1.60;;;11.30;99.90;;;;;;5030450;28;20427;-52
2023/05/23 02:10:00;;;;;;;5.60;2.75;;;11.20;99.90;;;;;;5030211;28;20032;-53
2023/05/23 02:12:26;;;;;;;2.50;1.52;;;11.10;99.90;;;;;;5030072;28;20022;-50
2023/05/23 02:14:54;;;;;;;4.05;2.22;;;11.10;99.90;;;;;;5030366;28;20124;-45
2023/05/23 02:17:20;;;;;;;7.57;2.38;;;11.10;99.90;;;;;;5030148;28;20020;-59
2023/05/23 02:19:47;;;;;;;3.20;2.00;;;11.10;99.90;;;;;;5030514;28;20120;-47
2023/05/23 02:22:13;;;;;;;6.88;2.08;;;11.00;99.90;;;;;;5030279;28;20025;-47
2023/05/23 02:24:39;;;;;;;9.20;3.25;;;11.00;99.90;;;;;;5030234;28;20116;-52
2023/05/23 02:27:05;;;;;;;4.63;1.58;;;11.00;99.90;;;;;;5029794;28;20025;-51
2023/05/23 02:29:30;;;;;;;3.25;1.80;;;11.00;99.90;;;;;;5029837;28;20477;-47
2023/05/23 02:31:56;;;;;;;7.25;2.67;;;11.00;99.90;;;;;;5030113;28;20037;-43
2023/05/23 02:34:21;;;;;;;4.00;2.15;;;11.00;99.90;;;;;;5030434;28;20029;-43
2023/05/23 02:36:47;;;;;;;4.18;2.22;;;10.90;99.90;;;;;;5030159;28;20025;-42
2023/05/23 02:39:12;;;;;;;4.50;2.55;;;10.90;99.90;;;;;;5030322;28;20030;-42
2023/05/23 02:41:38;;;;;;;3.72;1.92;;;11.00;99.90;;;;;;5031157;28;20033;-52
2023/05/23 02:44:04;;;;;;;4.40;2.03;;;10.90;99.90;;;;;;5033788;28;20040;-52
2023/05/23 02:46:30;;;;;;;2.17;1.48;;;10.90;99.90;;;;;;5034315;28;20778;-52
2023/05/23 02:48:55;;;;;;;6.07;2.63;;;10.90;99.90;;;;;;5033483;28;20037;-52
2023/05/23 02:51:21;;;;;;;4.80;1.75;;;10.90;99.90;;;;;;5033889;28;20028;-54
2023/05/23 02:53:46;;;;;;;3.67;1.75;;;10.90;99.90;;;;;;5033679;28;20022;-53
2023/05/23 02:56:12;;;;;;;3.40;1.67;;;10.90;99.90;;;;;;5031751;28;20025;-48
2023/05/23 02:58:38;;;;;;;3.28;1.63;;;10.90;99.90;;;;;;5033845;28;20405;-55
2023/05/23 03:01:05;;;;;;;6.07;2.85;;;10.90;99.90;;;;;;5033492;28;20029;-51
2023/05/23 03:03:30;;;;;;;4.60;2.38;;;10.90;99.90;;;;;;5033420;28;20053;-53
2023/05/23 03:06:00;;;;;;;3.88;2.22;;;10.90;99.90;;;;;;5033680;28;20488;-55
2023/05/23 03:08:26;;;;;;;4.40;2.05;;;10.90;99.90;;;;;;5033137;28;20402;-48
2023/05/23 03:10:52;;;;;;;3.92;1.88;;;10.90;99.90;;;;;;5033578;28;20083;-51
2023/05/23 03:13:18;;;;;;;4.65;2.25;;;10.90;99.90;;;;;;5033919;28;20018;-49
2023/05/23 03:15:43;;;;;;;4.45;2.63;;;10.80;99.90;;;;;;5033595;28;20018;-59
2023/05/23 03:18:10;;;;;;;3.10;1.75;;;10.70;99.90;;;;;;5033451;28;20043;-44
2023/05/23 03:20:35;;;;;;;3.05;1.60;;;10.70;99.90;;;;;;5030743;28;20376;-46
2023/05/23 03:23:01;;;;;;;7.78;1.58;;;10.70;99.90;;;;;;5033303;28;20038;-43
2023/05/23 03:25:26;;;;;;;6.70;2.35;;;10.70;99.90;;;;;;5033158;28;20141;-49
2023/05/23 03:27:52;;;;;;;3.78;1.88;;;10.70;99.90;;;;;;5032946;28;20171;-44
2023/05/23 03:30:18;;;;;;;5.95;2.70;;;10.60;99.90;;;;;;5032576;28;20605;-53
2023/05/23 03:32:43;;;;;;;11.38;2.60;;;10.60;99.90;;;;;;5033218;28;20036;-60
2023/05/23 03:35:10;;;;;;;6.18;2.35;;;10.60;99.90;;;;;;5032923;28;20044;-43
2023/05/23 03:37:35;;;;;;;4.38;2.20;;;10.60;99.90;;;;;;5032364;28;20399;-48
2023/05/23 03:40:01;;;;;;;8.75;2.53;;;10.60;99.90;;;;;;5032497;28;20034;-45
2023/05/23 03:42:27;;;;;;;6.68;3.13;;;10.60;99.90;;;;;;5032716;28;20025;-47
2023/05/23 03:44:53;;;;;;;4.30;2.33;;;10.50;99.90;;;;;;5032929;28;20377;-45
2023/05/23 03:47:19;;;;;;;2.42;1.60;;;10.50;99.90;;;;;;5032839;28;20104;-52
2023/05/23 03:49:45;;;;;;;5.78;2.42;;;10.50;99.90;;;;;;5033129;28;20225;-52
2023/05/23 03:52:11;;;;;;;2.60;1.90;;;10.50;99.90;;;;;;5032887;28;20083;-53
2023/05/23 03:54:36;;;;;;;4.40;2.22;;;10.50;99.90;;;;;;5032034;28;20040;-43
2023/05/23 03:57:02;;;;;;;4.90;1.60;;;10.50;99.90;;;;;;5032709;28;20030;-54
2023/05/23 03:59:28;;;;;;;5.47;2.25;;;10.50;99.90;;;;;;5032766;28;20041;-43
2023/05/23 04:01:54;;;;;;;4.20;1.95;;;10.40;99.90;;;;;;5032489;28;20391;-53
2023/05/23 04:04:23;;;;;;;5.00;2.53;;;10.40;99.90;;;;;;5031600;28;20463;-60
2023/05/23 04:06:49;;;;;;;4.05;2.03;;;10.40;99.90;;;;;;5032405;28;20033;-60
2023/05/23 04:09:15;;;;;;;5.38;2.15;;;10.40;99.90;;;;;;5032378;28;20064;-55
2023/05/23 04:11:41;;;;;;;2.20;1.70;;;10.40;99.90;;;;;;5032419;28;20057;-55
2023/05/23 04:14:07;;;;;;;3.60;1.98;;;10.40;99.90;;;;;;5032148;28;20432;-42
2023/05/23 04:16:34;;;;;;;3.03;1.85;;;10.40;99.90;;;;;;5032025;28;20026;-43
2023/05/23 04:19:01;;;;;;;4.78;1.90;;;10.30;99.90;;;;;;5032195;28;20025;-47
2023/05/23 04:21:27;;;;;;;2.33;1.63;;;10.30;99.90;;;;;;5031724;28;20108;-55
2023/05/23 04:23:52;;;;;;;3.85;1.90;;;10.30;99.90;;;;;;5031735;28;20128;-47
2023/05/23 04:26:19;;;;;;;3.35;1.52;;;10.40;99.90;;;;;;5031586;28;20040;-51
2023/05/23 04:28:45;;;;;;;4.70;2.72;;;10.40;99.90;;;;;;5031956;28;20038;-51
2023/05/23 04:31:12;;;;;;;2.58;1.90;;;10.50;99.90;;;;;;5031616;28;20033;-50
2023/05/23 04:33:38;;;;;;;4.13;1.77;;;10.50;99.90;;;;;;5031441;28;20033;-51
2023/05/23 04:36:04;;;;;;;3.45;1.70;;;10.50;99.90;;;;;;5031930;28;20036;-59
2023/05/23 04:38:30;;;;;;;4.85;2.33;;;10.50;99.90;;;;;;5031670;28;20021;-55
2023/05/23 04:40:56;;;;;;;3.95;2.40;;;10.50;99.90;;;;;;5031828;28;20033;-55
2023/05/23 04:43:25;;;;;;;3.65;2.10;;;10.50;99.90;;;;;;5031665;28;20063;-58
2023/05/23 04:45:53;;;;;;;3.13;2.13;;;10.50;99.90;;;;;;5031297;28;20125;-47
2023/05/23 04:48:20;;;;;;;3.85;2.35;;;10.60;99.90;;;;;;5031665;28;20100;-53
2023/05/23 04:50:46;;;;;;;2.50;1.83;;;10.60;99.90;;;;;;5031512;28;20104;-43
2023/05/23 04:53:12;;;;;;;3.25;1.95;;;10.70;99.90;;;;;;5031671;28;20032;-52
2023/05/23 04:55:38;;;;;;;2.72;1.38;;;10.70;99.90;;;;;;5031688;28;20017;-54
2023/05/23 04:58:03;;;;;;;4.63;2.00;;;10.80;99.90;;;;;;5030160;28;20435;-52
2023/05/23 05:00:29;;;;;;;5.63;2.67;;;10.80;99.90;;;;;;5031454;28;20025;-47
2023/05/23 05:02:55;;;;;;;3.63;2.22;;;10.90;99.90;;;;;;5030852;28;20045;-48
2023/05/23 05:05:20;;;;;;;3.47;2.30;;;10.90;99.90;;;;;;5031352;28;20029;-54
2023/05/23 05:07:46;;;;;;;3.45;2.08;;;11.00;99.90;;;;;;5029730;28;20432;-55
2023/05/23 05:10:17;;;;;;;3.00;2.03;;;11.00;99.90;;;;;;5025935;28;20069;-50
2023/05/23 05:12:48;;;;;;;2.88;2.42;;;11.10;99.90;;;;;;5028448;28;20488;-51
2023/05/23 05:15:18;;;;;;;5.47;2.58;;;11.20;99.90;;;;;;5028756;28;20068;-53
2023/05/23 05:17:44;;;;;;;2.60;1.42;;;11.30;99.90;;;;;;5025816;28;20029;-44
2023/05/23 05:20:10;;;;;;;4.10;1.90;;;11.40;99.90;;;;;;5028839;28;20029;-49
2023/05/23 05:22:39;;;;;;;6.85;3.55;;;11.50;99.90;;;;;;5029379;28;20030;-52
2023/05/23 05:25:08;;;;;;;2.90;1.67;;;11.60;99.90;;;;;;5029229;28;20041;-53
2023/05/23 05:27:36;;;;;;;;;;;11.70;99.90;;;;;;5027112;28;20511;-57
2023/05/23 05:30:07;;;;;;;2.35;1.55;;;11.80;99.90;;;;;;5030806;28;19916;-47
2023/05/23 05:32:33;;;;;;;2.25;1.33;;;12.00;99.90;;;;;;5029277;28;20033;-49
2023/05/23 05:35:02;;;;;;;3.65;1.58;;;12.20;99.90;;;;;;5029058;28;20634;-45
2023/05/23 05:37:29;;;;;;;1.83;1.15;;;12.30;99.90;;;;;;5029630;28;20033;-52
2023/05/23 05:39:55;;;;;;;2.53;1.58;;;12.50;99.90;;;;;;5028738;28;20045;-51
2023/05/23 05:42:21;;;;;;;7.63;1.92;;;12.70;99.90;;;;;;5029394;28;20037;-48
2023/05/23 05:44:48;;;;;;;3.95;1.73;;;12.90;99.90;;;;;;5029273;28;20064;-48
2023/05/23 05:47:14;;;;;;;2.90;1.83;;;13.20;99.90;;;;;;5030341;28;20044;-47
2023/05/23 05:49:39;;;;;;;3.30;1.45;;;13.50;99.90;;;;;;5030768;28;20391;-52
2023/05/23 05:52:08;;;;;;;2.83;1.30;;;13.90;99.90;;;;;;5030657;28;20017;-47
2023/05/23 05:54:34;;;;;;;2.42;1.55;;;14.40;99.90;;;;;;5029450;28;20033;-49
2023/05/23 05:57:00;;;;;;;4.00;1.48;;;14.90;99.90;;;;;;5030615;28;20036;-43
2023/05/23 05:59:26;;;;;;;5.25;1.40;;;15.50;99.90;;;;;;5030791;28;20025;-45
2023/05/23 06:01:52;;;;;;;2.28;1.10;;;16.20;99.90;;;;;;5030375;28;20050;-53
2023/05/23 06:04:18;;;;;;;2.35;1.00;;;16.70;99.90;;;;;;5030305;28;20038;-42
2023/05/23 06:06:43;;;;;;;2.40;1.50;;;17.30;99.90;;;;;;5030565;28;20041;-46
2023/05/23 06:09:12;;;;;;;5.47;1.10;;;17.60;99.90;;;;;;5030412;28;20100;-51
2023/05/23 06:11:39;;;;;;;2.35;1.02;;;18.00;99.90;;;;;;5030575;28;20021;-53
2023/05/23 06:14:05;;;;;;;1.80;1.08;;;18.30;99.90;;;;;;5030271;28;20507;-51
2023/05/23 06:16:31;;;;;;;2.83;0.93;;;18.60;99.90;;;;;;5029763;28;20116;-50
2023/05/23 06:18:57;;;;;;;1.98;0.88;;;18.80;99.90;;;;;;5034428;28;20128;-47
2023/05/23 06:21:22;;;;;;;1.70;0.60;;;18.90;99.90;;;;;;5034509;28;20493;-47
2023/05/23 06:23:48;;;;;;;1.20;0.60;;;19.10;99.90;;;;;;5034398;28;20029;-52
2023/05/23 06:26:13;;;;;;;0.60;0.50;;;19.10;97.20;;;;;;5034334;28;20075;-50
2023/05/23 06:28:39;;;;;;;1.38;0.88;;;19.40;97.90;;;;;;5034276;28;20021;-50
2023/05/23 06:31:05;;;;;;;1.42;0.70;;;19.70;97.40;;;;;;5034403;28;20025;-48
2023/05/23 06:33:31;;;;;;;2.33;0.68;;;19.80;94.50;;;;;;5034293;28;20047;-53
2023/05/23 06:35:57;;;;;;;1.33;0.60;;;20.30;96.10;;;;;;5034492;28;20037;-45
2023/05/23 06:38:23;;;;;;;0.90;0.57;;;20.60;92.70;;;;;;5034147;28;20022;-45
2023/05/23 06:40:48;;;;;;;1.20;0.57;;;21.00;91.30;;;;;;5034139;28;20116;-44
2023/05/23 06:43:14;;;;;;;0.85;0.50;;;21.00;87.50;;;;;;5034074;28;20135;-54
2023/05/23 06:45:40;;;;;;;0.75;0.43;;;21.50;88.60;;;;;;5033544;28;20064;-58
2023/05/23 06:48:05;;;;;;;0.40;0.40;;;21.80;87.00;;;;;;5034092;28;20030;-47
2023/05/23 06:50:31;;;;;;;0.55;0.47;;;22.00;81.90;;;;;;5033596;28;20025;-49
2023/05/23 06:52:56;;;;;;;1.17;0.57;;;22.10;80.80;;;;;;5033876;28;20095;-47
2023/05/23 06:55:22;;;;;;;2.47;0.60;;;22.20;76.40;;;;;;5033260;28;20028;-47
2023/05/23 06:57:51;;;;;;;1.35;0.50;;;22.40;76.50;;;;;;5033835;28;20037;-55
2023/05/23 07:00:17;;;;;;;0.87;0.43;;;22.60;75.90;;;;;;5033123;28;20025;-56
2023/05/23 07:02:44;;;;;;;1.65;0.55;;;22.80;76.20;;;;;;5033546;28;20282;-50
2023/05/23 07:05:10;;;;;;;0.40;0.40;;;23.20;73.50;;;;;;5033033;28;20033;-43
2023/05/23 07:07:36;;;;;;;0.68;0.35;;;23.50;73.00;;;;;;5033398;28;20037;-53
2023/05/23 07:10:01;;;;;;;0.77;0.55;;;23.70;71.80;;;;;;5033442;28;20037;-49
2023/05/23 07:12:27;;;;;;;0.38;0.30;;;23.40;66.90;;;;;;5033014;28;20097;-54
2023/05/23 07:14:53;;;;;;;0.32;0.30;;;23.50;68.30;;;;;;5032977;28;20049;-50
2023/05/23 07:17:18;;;;;;;1.15;0.30;;;23.50;65.90;;;;;;5031928;28;20021;-53
2023/05/23 07:19:44;;;;;;;2.47;0.70;;;23.30;64.00;;;;;;5033334;28;20472;-56
2023/05/23 07:22:10;;;;;;;0.52;0.40;;;23.70;66.20;;;;;;5033345;28;20025;-49
2023/05/23 07:24:36;;;;;;;1.13;0.40;;;23.40;61.70;;;;;;5032841;28;20037;-44
2023/05/23 07:27:01;;;;;;;0.40;0.35;;;22.50;64.30;;;;;;5033219;28;20570;-57
2023/05/23 07:29:27;;;;;;;1.30;0.63;;;22.70;68.50;;;;;;5031767;28;20064;-56
2023/05/23 07:31:53;;;;;;;0.82;0.30;;;22.90;67.60;;;;;;5031393;28;20385;-46
2023/05/23 07:34:18;;;;;;;0.65;0.45;;;23.30;65.50;;;;;;5029938;28;20026;-50
2023/05/23 07:36:44;;;;;;;1.23;0.50;;;23.50;69.90;;;;;;5032644;28;20414;-46
2023/05/23 07:39:10;;;;;;;1.17;0.63;;;23.90;66.40;;;;;;5032856;28;20025;-41
2023/05/23 07:41:35;;;;;;;0.63;0.47;;;24.10;61.60;;;;;;5025746;28;20030;-43
2023/05/23 07:44:01;;;;;;;1.00;0.30;;;24.30;65.30;;;;;;5027426;28;20037;-43
2023/05/23 07:46:26;;;;;;;1.00;0.45;;;24.40;64.20;;;;;;5031778;28;20014;-49
2023/05/23 07:48:52;;;;;;;0.68;0.40;;;24.60;67.10;;;;;;5031744;28;20053;-55
2023/05/23 07:51:20;;;;;;;0.80;0.50;;;24.90;69.20;;;;;;5031702;28;20648;-52
2023/05/23 07:53:46;;;;;;;0.70;0.50;;;25.10;63.60;;;;;;5032163;28;20052;-44
2023/05/23 07:56:11;;;;;;;0.38;0.38;;;25.10;63.50;;;;;;5032720;28;20029;-56
2023/05/23 07:58:37;;;;;;;0.88;0.40;;;25.50;66.70;;;;;;5032392;28;20024;-47
2023/05/23 08:01:03;;;;;;;0.30;0.30;;;25.40;62.80;;;;;;5031952;28;20061;-55
2023/05/23 08:03:28;;;;;;;0.98;0.45;;;25.40;60.60;;;;;;5032358;28;20124;-51
2023/05/23 08:05:54;;;;;;;0.30;0.30;;;25.30;59.60;;;;;;5031228;28;20060;-47
2023/05/23 08:08:20;;;;;;;0.73;0.40;;;24.90;60.00;;;;;;5032471;28;20025;-45
2023/05/23 08:10:46;;;;;;;0.50;0.50;;;24.70;58.10;;;;;;5032408;28;20026;-49
2023/05/23 08:13:11;;;;;;;0.68;0.50;;;24.10;60.80;;;;;;5032296;28;20021;-58
2023/05/23 08:15:37;;;;;;;0.55;0.35;;;24.00;61.60;;;;;;5032309;28;20029;-58
2023/05/23 08:18:03;;;;;;;0.63;0.50;;;23.60;60.50;;;;;;5031942;28;20105;-51
2023/05/23 08:20:29;;;;;;;1.00;0.40;;;23.10;61.30;;;;;;5032443;28;20064;-53
2023/05/23 08:23:04;;;;;;;1.17;0.45;;;22.90;61.60;;;;;;5031750;28;20045;-54
2023/05/23 08:25:30;;;;;;;0.80;0.40;;;23.20;63.60;;;;;;5032038;28;20037;-54
2023/05/23 08:27:57;;;;;;;3.92;0.50;;;22.90;59.80;;;;;;5032229;28;20032;-42
2023/05/23 08:30:24;;;;;;;0.50;0.45;;;23.50;61.60;;;;;;5032531;28;20064;-48
2023/05/23 08:32:54;;;;;;;5.90;0.45;;;23.90;60.80;;;;;;5032214;28;20459;-46
2023/05/23 08:35:20;;;;;;;1.20;0.40;;;24.10;57.50;;;;;;5032310;28;20045;-54
2023/05/23 08:37:46;;;;;;;2.05;0.40;;;24.00;58.10;;;;;;5031955;28;20021;-55
2023/05/23 08:40:20;;;;;;;0.30;0.30;;;23.00;58.30;;;;;;5031163;28;20026;-49
2023/05/23 08:42:47;;;;;;;1.13;0.32;;;22.10;60.70;;;;;;5028261;28;20108;-51
2023/05/23 08:45:13;;;;;;;0.30;0.30;;;21.80;64.40;;;;;;5031672;28;20033;-55
2023/05/23 08:47:44;;;;;;;1.08;0.50;;;22.00;64.60;;;;;;5031589;28;20069;-42
2023/05/23 08:50:12;;;;;;;0.47;0.40;;;22.40;61.10;;;;;;5031713;28;20061;-57
2023/05/23 08:52:44;;;;;;;1.10;0.50;;;23.10;62.90;;;;;;5031881;28;20105;-56
2023/05/23 08:55:11;;;;;;;0.52;0.30;;;23.70;60.80;;;;;;5031601;28;20096;-45
2023/05/23 08:57:38;;;;;;;1.95;0.40;;;23.50;57.20;;;;;;5031490;28;20396;-51
2023/05/23 09:00:09;;;;;;;0.90;0.40;;;23.80;56.70;;;;;;5031863;28;20076;-45
2023/05/23 09:02:36;;;;;;;0.70;0.40;;;23.60;58.20;;;;;;5030833;28;20085;-51
2023/05/23 09:05:02;;;;;;;0.43;0.30;;;23.40;59.20;;;;;;5031590;28;20037;-50
2023/05/23 09:07:28;;;;;;;0.57;0.47;;;23.50;57.40;;;;;;5030736;28;20028;-43
2023/05/23 09:09:54;;;;;;;0.63;0.30;;;23.40;59.10;;;;;;5031391;28;20028;-47
2023/05/23 09:12:21;;;;;;;0.98;0.40;;;23.50;64.40;;;;;;5031117;28;20384;-44
2023/05/23 09:14:47;;;;;;;0.38;0.35;;;23.40;58.00;;;;;;5030013;28;20247;-46
2023/05/23 09:17:19;;;;;;;1.02;0.40;;;22.90;57.50;;;;;;5021483;28;20025;-49
2023/05/23 09:19:46;;;;;;;1.10;0.50;;;22.50;58.70;;;;;;5029776;28;20025;-44
2023/05/23 09:22:12;;;;;;;0.90;0.40;;;22.10;58.90;;;;;;5031073;28;20025;-45
2023/05/23 09:24:38;;;;;;;0.57;0.40;;;22.10;62.50;;;;;;5030807;28;20049;-50
2023/05/23 09:27:06;;;;;;;0.40;0.30;;;22.20;63.10;;;;;;5030999;28;20037;-49
2023/05/23 09:29:31;;;;;;;0.55;0.40;;;22.10;60.90;;;;;;5031039;28;20037;-57
2023/05/23 09:32:11;;;;;;;0.70;0.40;;;22.90;65.50;;;;;;5030364;28;20142;-58
2023/05/23 09:34:40;;;;;;;0.60;0.40;;;23.70;61.00;;;;;;5031225;28;20033;-52
2023/05/23 09:37:07;;;;;;;0.57;0.35;;;24.00;56.40;;;;;;5031036;28;20026;-53
2023/05/23 09:39:36;;;;;;;1.83;0.60;;;24.40;56.00;;;;;;5031072;28;20050;-42
2023/05/23 09:42:02;;;;;;;1.40;0.60;;;24.60;55.00;;;;;;5029088;28;20028;-51
2023/05/23 09:44:27;;;;;;;2.28;0.50;;;24.40;54.80;;;;;;5030836;28;20025;-49
2023/05/23 09:46:53;;;;;;;0.40;0.28;;;23.60;54.40;;;;;;5030791;28;20388;-58
2023/05/23 09:49:19;;;;;;;0.20;0.20;;;23.40;54.30;;;;;;5030795;28;20048;-44
2023/05/23 09:51:59;;;;;;;0.80;0.40;;;23.30;57.30;;;;;;5030127;28;20036;-47
2023/05/23 09:54:25;;;;;;;0.57;0.38;;;23.20;58.30;;;;;;5030646;28;20479;-48
2023/05/23 09:56:54;;;;;;;0.40;0.30;;;22.80;56.90;;;;;;5030721;28;20168;-51
2023/05/23 09:59:24;;;;;;;0.40;0.30;;;22.80;60.90;;;;;;5030616;28;20021;-44
2023/05/23 10:01:52;;;;;;;0.70;0.40;;;22.70;59.20;;;;;;5030474;28;20120;-56
2023/05/23 10:04:24;;;;;;;0.90;0.50;;;22.90;58.50;;;;;;5030307;28;20034;-44
2023/05/23 10:06:58;;;;;;;0.28;0.22;;;23.10;58.80;;;;;;5030458;28;20028;-50
2023/05/23 10:09:25;;;;;;;0.60;0.40;;;23.50;61.60;;;;;;5030152;28;20113;-55
2023/05/23 10:12:45;;;;;;;0.65;0.45;;;23.90;61.00;;;;;;5024417;28;20021;-47
2023/05/23 10:15:14;;;;;;;0.30;0.30;;;23.30;56.40;;;;;;4986727;28;20026;-50
2023/05/23 10:18:36;;;;;;;0.70;0.30;;;23.30;60.70;;;;;;5027780;28;20404;-43
2023/05/23 10:21:08;;;;;;;0.38;0.38;;;22.90;58.60;;;;;;4950100;28;20027;-45
2023/05/23 10:23:36;;;;;;;0.52;0.40;;;22.30;58.80;;;;;;4949534;29;20618;-56
2023/05/23 10:26:03;;;;;;;0.30;0.22;;;22.00;61.50;;;;;;4991737;28;20113;-54
2023/05/23 10:28:32;;;;;;;1.95;0.45;;;22.00;62.80;;;;;;5030205;28;20392;-54
2023/05/23 10:30:58;;;;;;;0.52;0.40;;;21.70;60.10;;;;;;5029265;28;20036;-53
2023/05/23 10:33:26;;;;;;;0.63;0.30;;;21.60;59.70;;;;;;5029063;28;20443;-57
2023/05/23 10:36:13;;;;;;;0.50;0.40;;;21.20;59.40;;;;;;5030499;28;20030;-57
2023/05/23 10:38:39;;;;;;;0.55;0.30;;;20.70;63.50;;;;;;5030169;28;20024;-45
2023/05/23 10:41:26;;;;;;;1.10;0.40;;;20.40;60.00;;;;;;5030213;28;20053;-54
2023/05/23 10:44:18;;;;;;;0.30;0.25;;;20.20;68.50;;;;;;5030129;28;20435;-43
2023/05/23 10:46:57;;;;;;;2.83;0.55;;;20.10;61.90;;;;;;5030040;28;20112;-52
2023/05/23 10:49:39;;;;;;;0.90;0.35;;;19.90;64.10;;;;;;5030323;28;20503;-55
2023/05/23 10:52:06;;;;;;;0.88;0.57;;;19.90;65.40;;;;;;5030143;28;20052;-46
2023/05/23 10:54:46;;;;;;;0.90;0.40;;;19.90;63.80;;;;;;5030247;28;20503;-45
2023/05/23 10:57:20;;;;;;;0.68;0.40;;;19.80;65.00;;;;;;5030115;28;20029;-42
2023/05/23 10:59:48;;;;;;;0.30;0.30;;;19.70;63.70;;;;;;5030035;28;20475;-58
2023/05/23 11:02:17;;;;;;;1.10;0.57;;;19.90;64.10;;;;;;5029999;28;20407;-51
2023/05/23 11:04:43;;;;;;;0.37;0.30;;;20.00;62.90;;;;;;5033907;28;20069;-51
2023/05/23 11:07:32;;;;;;;1.73;0.38;;;20.00;62.30;;;;;;5033725;28;20491;-53
2023/05/23 11:10:03;;;;;;;2.50;0.70;;;20.20;64.50;;;;;;5033914;28;20087;-49
2023/05/23 11:12:41;;;;;;;1.30;0.50;;;20.20;63.50;;;;;;5033564;28;21107;-49
2023/05/23 11:15:20;;;;;;;1.45;0.55;;;20.30;67.70;;;;;;5033186;28;20029;-42
2023/05/23 11:17:56;;;;;;;1.25;0.52;;;20.20;64.90;;;;;;5033444;28;20017;-49
2023/05/23 11:20:27;;;;;;;0.93;0.50;;;20.10;66.50;;;;;;5023755;28;20160;-43
2023/05/23 11:23:07;;;;;;;2.33;0.50;;;20.10;64.40;;;;;;5023847;28;20026;-48
2023/05/23 11:25:41;;;;;;;0.80;0.35;;;20.10;64.40;;;;;;5029311;28;20037;-43
2023/05/23 11:28:07;;;;;;;2.10;0.38;;;20.40;62.40;;;;;;5033185;28;20040;-59
2023/05/23 11:30:38;;;;;;;0.30;0.30;;;21.00;64.90;;;;;;5032981;28;20033;-50
2023/05/23 11:33:15;;;;;;;0.63;0.40;;;21.40;63.90;;;;;;5033077;28;20025;-46
2023/05/23 11:35:42;;;;;;;0.20;0.20;;;22.00;62.60;;;;;;5033780;28;20150;-53
2023/05/23 11:38:08;;;;;;;0.85;0.50;;;22.50;59.40;;;;;;5032069;28;20034;-49
2023/05/23 11:40:38;;;;;;;0.95;0.60;;;22.50;60.40;;;;;;5021981;28;20053;-43
2023/05/23 11:43:08;;;;;;;0.95;0.60;;;22.50;56.60;;;;;;5031961;28;20026;-54
2023/05/23 11:45:35;;;;;;;0.60;0.30;;;22.40;55.70;;;;;;5032920;28;20037;-40
2023/05/23 11:48:12;;;;;;;0.40;0.30;;;22.60;61.60;;;;;;5033210;28;20033;-54
2023/05/23 11:50:53;;;;;;;1.73;0.60;;;22.60;56.40;;;;;;5031866;28;20033;-46
2023/05/23 11:53:24;;;;;;;0.75;0.40;;;22.80;58.90;;;;;;5032932;28;20029;-48
2023/05/23 11:55:58;;;;;;;1.17;0.30;;;22.70;59.80;;;;;;5032833;28;20148;-47
2023/05/23 11:58:35;;;;;;;1.15;0.30;;;22.50;59.80;;;;;;5032629;28;20075;-46
2023/05/23 12:01:06;;;;;;;1.65;0.40;;;22.50;58.60;;;;;;5030333;28;20032;-50
2023/05/23 12:03:33;;;;;;;1.38;0.40;;;22.80;60.30;;;;;;5032585;28;20050;-45
2023/05/23 12:06:00;;;;;;;0.93;0.40;;;22.60;56.80;;;;;;5032415;28;20112;-45
2023/05/23 12:08:26;;;;;;;3.28;0.80;;;22.80;60.50;;;;;;5032707;28;20503;-43
2023/05/23 12:10:55;;;;;;;4.35;0.63;;;23.10;60.60;;;;;;5032471;28;20021;-44
2023/05/23 12:13:24;;;;;;;0.40;0.40;;;23.10;58.80;;;;;;5022705;28;20032;-43
2023/05/23 12:15:57;;;;;;;1.38;0.60;;;23.30;61.10;;;;;;5031160;28;20025;-43
2023/05/23 12:18:23;;;;;;;1.27;0.60;;;23.10;54.60;;;;;;5032556;28;20026;-41
2023/05/23 12:20:50;;;;;;;2.08;0.50;;;23.00;58.80;;;;;;5031825;28;20120;-55
2023/05/23 12:23:22;;;;;;;1.35;0.50;;;23.30;59.80;;;;;;5032326;28;20112;-49
2023/05/23 12:25:55;;;;;;;3.50;0.52;;;23.40;58.60;;;;;;5032075;28;20068;-52
2023/05/23 12:28:33;;;;;;;0.93;0.60;;;23.40;61.40;;;;;;5032077;28;20378;-50
2023/05/23 12:30:59;;;;;;;0.43;0.40;;;23.00;60.50;;;;;;5032418;28;20066;-50
2023/05/23 12:33:24;;;;;;;0.50;0.38;;;23.00;59.50;;;;;;5032118;28;20101;-44
2023/05/23 12:35:50;;;;;;;1.40;0.50;;;22.60;60.90;;;;;;5032185;28;20029;-47
2023/05/23 12:38:16;;;;;;;0.20;0.20;;;22.00;60.20;;;;;;5032159;28;20112;-42
2023/05/23 12:40:42;;;;;;;0.40;0.30;;;22.20;60.00;;;;;;5032037;28;20080;-45
2023/05/23 12:43:09;;;;;;;0.30;0.30;;;22.20;61.90;;;;;;5032144;28;20124;-44
2023/05/23 12:45:35;;;;;;;0.68;0.45;;;22.10;60.80;;;;;;5031874;28;20477;-57
2023/05/23 12:48:07;;;;;;;2.92;0.60;;;22.30;65.50;;;;;;5032003;28;20618;-60
2023/05/23 12:50:33;;;;;;;2.03;0.50;;;22.20;58.80;;;;;;5031786;28;20021;-44
2023/05/23 12:52:59;;;;;;;3.20;0.70;;;22.40;60.20;;;;;;5031973;28;20025;-37